Time;durP1;ratioP1;P1;durP2;ratioP2;P2;SDS_P1;SDS_P2;PMS_P1;PMS_P2;Temp;Humidity;BMP_temperature;BMP_pressure;BME280_temperature;BME280_humidity;BME280_pressure;Samples;Min_cycle;Max_cycle;Signal;HPM_P1;HPM_P2
2022/02/27 00:01:30;;;;;;;5.25;1.63;;;2.40;93.50;;;;;;5035903;28;20059;-80
2022/02/27 00:03:58;;;;;;;5.43;1.77;;;2.40;93.30;;;;;;5041268;28;20049;-80
2022/02/27 00:06:25;;;;;;;5.40;1.70;;;2.40;93.40;;;;;;5031770;28;20048;-74
2022/02/27 00:08:52;;;;;;;4.10;1.93;;;2.40;93.40;;;;;;5039187;28;20044;-75
2022/02/27 00:11:19;;;;;;;5.73;2.00;;;2.40;93.40;;;;;;5052940;28;20072;-74
2022/02/27 00:13:46;;;;;;;3.97;1.37;;;2.40;93.40;;;;;;5034810;28;20077;-74
2022/02/27 00:16:13;;;;;;;4.80;1.73;;;2.40;93.40;;;;;;5034864;28;20045;-74
2022/02/27 00:18:40;;;;;;;5.70;1.50;;;2.30;93.30;;;;;;5018499;28;20041;-74
2022/02/27 00:21:07;;;;;;;4.00;1.30;;;2.40;93.40;;;;;;5001110;28;20154;-74
2022/02/27 00:23:34;;;;;;;5.15;1.63;;;2.40;93.30;;;;;;5017294;28;20151;-74
2022/02/27 00:26:01;;;;;;;5.03;1.43;;;2.30;93.30;;;;;;5017744;28;20041;-75
2022/02/27 00:28:28;;;;;;;3.33;1.07;;;2.30;93.30;;;;;;5033576;28;20044;-74
2022/02/27 00:30:58;;;;;;;3.57;1.50;;;2.30;93.30;;;;;;5033799;28;20045;-74
2022/02/27 00:33:25;;;;;;;3.67;1.33;;;2.30;93.30;;;;;;5017470;28;20040;-74
2022/02/27 00:35:52;;;;;;;4.63;1.20;;;2.20;93.30;;;;;;5015418;28;20060;-74
2022/02/27 00:38:19;;;;;;;5.63;1.23;;;2.30;93.40;;;;;;5037102;28;20052;-74
2022/02/27 00:40:48;;;;;;;2.53;1.03;;;2.30;93.40;;;;;;5054180;28;20411;-74
2022/02/27 00:43:15;;;;;;;3.10;1.47;;;2.30;93.30;;;;;;5053772;28;20063;-74
2022/02/27 00:45:42;;;;;;;4.37;1.00;;;2.30;93.30;;;;;;5071894;28;20044;-80
2022/02/27 00:48:10;;;;;;;3.20;0.90;;;2.30;93.30;;;;;;5021628;28;20139;-80
2022/02/27 00:50:36;;;;;;;4.88;1.20;;;2.30;93.30;;;;;;5054360;28;20334;-80
2022/02/27 00:53:06;;;;;;;5.00;1.58;;;2.30;93.30;;;;;;5057359;28;20041;-79
2022/02/27 00:55:33;;;;;;;2.80;1.10;;;2.30;93.30;;;;;;5059002;28;20048;-80
2022/02/27 00:58:01;;;;;;;3.20;0.93;;;2.30;93.30;;;;;;5058730;28;20079;-80
2022/02/27 01:00:28;;;;;;;4.03;0.90;;;2.30;93.30;;;;;;5041654;28;20053;-79
2022/02/27 01:02:58;;;;;;;3.07;1.30;;;2.20;93.30;;;;;;5042106;28;20068;-79
2022/02/27 01:05:27;;;;;;;3.03;1.10;;;2.20;93.30;;;;;;5041831;28;20040;-80
2022/02/27 01:07:54;;;;;;;3.50;0.83;;;2.20;93.30;;;;;;5041739;28;20050;-80
2022/02/27 01:10:21;;;;;;;3.13;1.20;;;2.20;93.30;;;;;;5042076;28;20048;-80
2022/02/27 01:12:48;;;;;;;2.80;0.87;;;2.20;93.30;;;;;;5042113;28;20040;-80
2022/02/27 01:15:16;;;;;;;3.53;1.57;;;2.20;93.30;;;;;;5058247;28;20527;-80
2022/02/27 01:17:46;;;;;;;3.03;0.80;;;2.20;93.30;;;;;;5058635;28;20040;-80
2022/02/27 01:20:13;;;;;;;3.37;1.10;;;2.20;93.30;;;;;;5041428;28;20048;-80
2022/02/27 01:22:40;;;;;;;4.47;1.43;;;2.20;93.30;;;;;;5041215;28;20048;-80
2022/02/27 01:25:09;;;;;;;2.63;1.20;;;2.20;93.30;;;;;;5041418;28;20049;-80
2022/02/27 01:27:36;;;;;;;3.65;1.30;;;2.20;93.30;;;;;;5041204;28;20047;-80
2022/02/27 01:30:05;;;;;;;4.00;1.20;;;2.20;93.30;;;;;;5057872;28;20044;-80
2022/02/27 01:32:33;;;;;;;3.03;1.20;;;2.20;93.30;;;;;;5076146;28;20481;-80
2022/02/27 01:35:03;;;;;;;4.17;1.43;;;2.20;93.30;;;;;;5058209;28;20048;-80
2022/02/27 01:37:30;;;;;;;3.93;1.17;;;2.20;93.30;;;;;;5041266;28;20044;-80
2022/02/27 01:39:57;;;;;;;3.63;1.13;;;2.20;93.30;;;;;;5041174;28;20045;-80
2022/02/27 01:42:24;;;;;;;4.50;1.40;;;2.20;93.30;;;;;;5075430;28;20545;-80
2022/02/27 01:44:51;;;;;;;2.97;1.30;;;2.10;93.20;;;;;;5057636;28;20400;-80
2022/02/27 01:47:18;;;;;;;4.37;1.50;;;2.10;93.30;;;;;;5057682;28;20476;-80
2022/02/27 01:49:47;;;;;;;3.73;1.47;;;2.10;93.30;;;;;;5057643;28;20051;-80
2022/02/27 01:52:18;;;;;;;4.90;1.65;;;2.10;93.30;;;;;;5057206;28;20094;-81
2022/02/27 01:54:45;;;;;;;4.80;1.13;;;2.10;93.30;;;;;;5056695;28;20064;-75
2022/02/27 01:57:14;;;;;;;4.13;1.10;;;2.10;93.20;;;;;;5024617;28;20135;-74
2022/02/27 01:59:44;;;;;;;4.00;0.90;;;2.10;93.30;;;;;;5040196;28;20079;-74
2022/02/27 02:02:12;;;;;;;2.80;1.20;;;2.10;93.30;;;;;;5056838;28;20099;-74
2022/02/27 02:04:44;;;;;;;2.15;1.08;;;2.10;93.30;;;;;;5056060;28;20040;-74
2022/02/27 02:07:12;;;;;;;3.30;1.30;;;2.00;93.30;;;;;;5039702;28;20056;-74
2022/02/27 02:09:40;;;;;;;2.67;0.93;;;2.00;93.30;;;;;;5074116;28;20511;-75
2022/02/27 02:12:11;;;;;;;3.03;1.10;;;2.00;93.30;;;;;;5040221;28;20374;-74
2022/02/27 02:14:39;;;;;;;4.17;1.20;;;2.00;93.30;;;;;;5039754;28;20040;-74
2022/02/27 02:17:06;;;;;;;3.07;0.90;;;2.00;93.30;;;;;;5039786;28;20044;-74
2022/02/27 02:19:34;;;;;;;4.07;1.47;;;2.00;93.40;;;;;;5055757;28;20567;-74
2022/02/27 02:22:07;;;;;;;4.30;1.00;;;1.90;93.40;;;;;;5040308;28;20040;-74
2022/02/27 02:24:38;;;;;;;2.20;0.82;;;1.90;93.40;;;;;;5056264;28;20130;-74
2022/02/27 02:27:05;;;;;;;2.33;1.13;;;1.90;93.40;;;;;;5055852;28;20055;-74
2022/02/27 02:29:33;;;;;;;4.03;1.33;;;1.80;93.40;;;;;;5039685;28;20037;-74
2022/02/27 02:32:08;;;;;;;4.13;1.40;;;1.80;93.40;;;;;;5025172;28;20068;-74
2022/02/27 02:34:36;;;;;;;4.27;1.67;;;1.80;93.50;;;;;;5040065;28;20770;-80
2022/02/27 02:37:10;;;;;;;2.47;1.20;;;1.80;93.50;;;;;;5074660;28;20048;-80
2022/02/27 02:39:39;;;;;;;2.80;1.08;;;1.80;93.50;;;;;;5040305;28;20139;-80
2022/02/27 02:42:08;;;;;;;3.57;1.97;;;1.70;93.50;;;;;;5039877;28;20135;-74
2022/02/27 02:44:39;;;;;;;3.00;0.90;;;1.70;93.50;;;;;;5024073;28;20062;-74
2022/02/27 02:47:06;;;;;;;4.67;1.20;;;1.70;93.50;;;;;;5055724;28;20048;-75
2022/02/27 02:49:34;;;;;;;4.23;1.50;;;1.70;93.50;;;;;;5039237;28;20048;-74
2022/02/27 02:52:04;;;;;;;2.60;0.80;;;1.70;93.50;;;;;;5039139;28;20512;-73
2022/02/27 02:54:34;;;;;;;3.33;0.90;;;1.70;93.50;;;;;;5022872;28;20049;-73
2022/02/27 02:57:01;;;;;;;3.33;1.03;;;1.70;93.50;;;;;;5023433;28;20048;-73
2022/02/27 02:59:28;;;;;;;4.33;1.20;;;1.70;93.50;;;;;;5022484;28;20045;-75
2022/02/27 03:01:55;;;;;;;2.87;0.97;;;1.70;93.50;;;;;;5073400;28;20055;-73
2022/02/27 03:04:22;;;;;;;4.07;1.20;;;1.70;93.40;;;;;;5073360;28;20040;-73
2022/02/27 03:06:49;;;;;;;1.67;0.70;;;1.70;93.40;;;;;;5038803;28;20406;-73
2022/02/27 03:09:17;;;;;;;2.30;0.70;;;1.70;93.40;;;;;;5055983;28;20830;-74
2022/02/27 03:11:45;;;;;;;2.20;0.70;;;1.70;93.40;;;;;;5022905;28;20401;-73
2022/02/27 03:14:12;;;;;;;2.30;0.80;;;1.70;93.40;;;;;;5073964;28;20040;-79
2022/02/27 03:16:41;;;;;;;2.73;0.93;;;1.70;93.40;;;;;;5073612;28;20048;-79
2022/02/27 03:19:08;;;;;;;4.03;1.13;;;1.70;93.40;;;;;;5039522;28;20408;-73
2022/02/27 03:21:36;;;;;;;1.27;0.60;;;1.70;93.40;;;;;;5040799;28;20072;-73
2022/02/27 03:24:06;;;;;;;2.00;0.83;;;1.70;93.40;;;;;;5043925;28;20098;-73
2022/02/27 03:26:33;;;;;;;2.83;0.97;;;1.70;93.40;;;;;;5075261;28;20499;-73
2022/02/27 03:29:00;;;;;;;3.27;0.70;;;1.70;93.40;;;;;;5042072;28;20059;-79
2022/02/27 03:31:27;;;;;;;3.47;0.83;;;1.70;93.40;;;;;;5076742;28;20050;-80
2022/02/27 03:33:54;;;;;;;3.47;0.80;;;1.70;93.40;;;;;;5057394;28;20546;-79
2022/02/27 03:36:21;;;;;;;2.20;0.70;;;1.70;93.40;;;;;;5039243;28;20117;-79
2022/02/27 03:38:48;;;;;;;2.97;0.97;;;1.70;93.40;;;;;;5055849;28;20051;-79
2022/02/27 03:41:15;;;;;;;3.83;0.93;;;1.70;93.40;;;;;;5039182;28;20443;-79
2022/02/27 03:43:42;;;;;;;2.87;0.80;;;1.70;93.40;;;;;;5038973;28;20068;-79
2022/02/27 03:46:10;;;;;;;2.57;0.70;;;1.70;93.40;;;;;;5055327;28;20040;-79
2022/02/27 03:48:39;;;;;;;2.20;0.60;;;1.70;93.40;;;;;;5073365;28;20041;-79
2022/02/27 03:51:08;;;;;;;2.67;0.80;;;1.70;93.40;;;;;;5039405;28;20045;-79
2022/02/27 03:53:35;;;;;;;2.40;0.80;;;1.60;93.40;;;;;;5038897;28;20455;-79
2022/02/27 03:56:03;;;;;;;1.40;0.60;;;1.60;93.40;;;;;;5055672;28;20702;-79
2022/02/27 03:58:30;;;;;;;2.30;0.80;;;1.60;93.50;;;;;;5039023;28;20395;-80
2022/02/27 04:00:56;;;;;;;1.90;0.60;;;1.60;93.40;;;;;;5055644;28;20116;-79
2022/02/27 04:03:24;;;;;;;1.77;0.70;;;1.60;93.50;;;;;;5055167;28;20048;-79
2022/02/27 04:05:51;;;;;;;1.60;0.60;;;1.60;93.50;;;;;;5039012;28;20563;-79
2022/02/27 04:08:19;;;;;;;1.90;0.60;;;1.60;93.50;;;;;;5055526;28;20045;-79
2022/02/27 04:10:46;;;;;;;2.00;0.50;;;1.50;93.50;;;;;;5055411;28;20106;-79
2022/02/27 04:13:17;;;;;;;1.50;0.50;;;1.50;93.50;;;;;;5039157;28;20569;-79
2022/02/27 04:15:44;;;;;;;1.93;0.70;;;1.60;93.50;;;;;;5054991;28;20075;-79
2022/02/27 04:18:13;;;;;;;2.73;0.70;;;1.60;93.50;;;;;;5054760;28;20059;-74
2022/02/27 04:20:40;;;;;;;1.37;0.50;;;1.60;93.50;;;;;;5053908;28;20105;-73
2022/02/27 04:23:07;;;;;;;2.77;0.70;;;1.60;93.80;;;;;;5037601;28;20270;-75
2022/02/27 04:25:34;;;;;;;2.47;0.77;;;1.50;93.50;;;;;;5053721;28;20123;-73
2022/02/27 04:28:01;;;;;;;1.50;0.60;;;1.50;93.50;;;;;;5053469;28;20131;-73
2022/02/27 04:30:28;;;;;;;3.80;0.70;;;1.50;93.50;;;;;;5054095;28;20396;-73
2022/02/27 04:32:55;;;;;;;1.97;0.63;;;1.50;93.50;;;;;;5037820;28;20507;-72
2022/02/27 04:35:22;;;;;;;3.57;0.97;;;1.50;93.50;;;;;;5062956;28;20130;-74
2022/02/27 04:37:49;;;;;;;4.10;0.73;;;1.50;93.50;;;;;;5017762;28;20079;-73
2022/02/27 04:40:18;;;;;;;2.30;0.50;;;1.50;93.50;;;;;;5017763;28;20091;-73
2022/02/27 04:42:48;;;;;;;2.50;0.60;;;1.50;93.50;;;;;;5033915;28;20045;-74
2022/02/27 04:45:15;;;;;;;1.33;0.50;;;1.50;93.50;;;;;;5034467;28;20041;-73
2022/02/27 04:47:42;;;;;;;2.63;0.73;;;1.40;93.80;;;;;;5051808;28;20037;-74
2022/02/27 04:50:09;;;;;;;3.43;0.90;;;1.50;93.50;;;;;;5001135;28;20041;-74
2022/02/27 04:52:36;;;;;;;1.70;0.70;;;1.40;93.50;;;;;;5017936;28;20090;-79
2022/02/27 04:55:04;;;;;;;4.37;0.80;;;1.40;93.50;;;;;;5033969;28;20095;-79
2022/02/27 04:57:33;;;;;;;2.77;0.90;;;1.40;93.50;;;;;;5017924;28;20056;-79
2022/02/27 05:00:02;;;;;;;4.33;0.87;;;1.40;93.60;;;;;;5033933;28;20071;-80
2022/02/27 05:02:30;;;;;;;2.23;0.87;;;1.40;93.80;;;;;;5052387;28;20103;-79
2022/02/27 05:04:57;;;;;;;1.30;0.60;;;1.40;93.50;;;;;;5001803;28;20048;-79
2022/02/27 05:07:24;;;;;;;3.30;1.27;;;1.40;93.50;;;;;;5001924;28;20408;-79
2022/02/27 05:09:51;;;;;;;2.73;0.80;;;1.40;93.60;;;;;;5052232;28;20444;-79
2022/02/27 05:12:18;;;;;;;2.53;0.80;;;1.40;93.50;;;;;;5034334;28;20132;-79
2022/02/27 05:14:45;;;;;;;3.00;1.00;;;1.40;93.50;;;;;;5034445;28;20048;-79
2022/02/27 05:17:32;;;;;;;2.30;0.70;;;1.40;93.50;;;;;;5034485;28;20068;-79
2022/02/27 05:19:59;;;;;;;5.23;1.17;;;1.40;93.50;;;;;;5017495;28;20491;-74
2022/02/27 05:22:26;;;;;;;2.80;0.93;;;1.30;93.50;;;;;;5034079;28;20045;-74
2022/02/27 05:24:54;;;;;;;2.33;1.10;;;1.30;93.50;;;;;;5017546;28;20063;-74
2022/02/27 05:27:21;;;;;;;2.20;0.87;;;1.30;93.50;;;;;;5017385;28;20049;-75
2022/02/27 05:29:48;;;;;;;1.87;0.63;;;1.30;93.50;;;;;;5017511;28;20059;-74
2022/02/27 05:32:16;;;;;;;2.37;1.00;;;1.30;93.60;;;;;;5033786;28;20037;-74
2022/02/27 05:34:44;;;;;;;3.07;0.80;;;1.30;93.60;;;;;;5036403;28;20110;-80
2022/02/27 05:37:11;;;;;;;4.60;1.17;;;1.30;93.60;;;;;;5034268;28;20073;-80
2022/02/27 05:39:38;;;;;;;3.07;1.07;;;1.30;93.60;;;;;;4988729;28;20056;-80
2022/02/27 05:42:07;;;;;;;1.97;0.87;;;1.20;93.50;;;;;;5023085;28;20043;-79
2022/02/27 05:44:34;;;;;;;1.30;0.50;;;1.30;93.90;;;;;;5023058;28;20453;-79
2022/02/27 05:47:02;;;;;;;2.43;0.87;;;1.20;93.50;;;;;;5057843;28;20043;-79
2022/02/27 05:49:29;;;;;;;3.43;0.93;;;1.20;93.60;;;;;;5057780;28;20397;-80
2022/02/27 05:51:56;;;;;;;1.83;0.70;;;1.20;93.60;;;;;;5075463;28;20068;-80
2022/02/27 05:54:23;;;;;;;2.53;1.10;;;1.20;93.60;;;;;;5024169;28;20047;-79
2022/02/27 05:56:51;;;;;;;3.83;1.03;;;1.20;93.60;;;;;;5008588;28;20048;-80
2022/02/27 05:59:20;;;;;;;4.33;1.30;;;1.20;93.70;;;;;;5040645;28;20139;-80
2022/02/27 06:01:48;;;;;;;3.23;1.43;;;1.20;93.60;;;;;;5057469;28;20067;-80
2022/02/27 06:04:16;;;;;;;2.40;1.03;;;1.20;93.60;;;;;;5057139;28;20044;-80
2022/02/27 06:06:43;;;;;;;2.37;1.00;;;1.20;93.60;;;;;;5040844;28;20219;-79
2022/02/27 06:09:13;;;;;;;2.80;0.90;;;1.20;93.60;;;;;;5057454;28;20068;-80
2022/02/27 06:11:45;;;;;;;3.13;0.93;;;1.20;93.60;;;;;;5058450;28;20037;-80
2022/02/27 06:14:12;;;;;;;4.77;1.00;;;1.10;93.60;;;;;;5040613;28;20044;-80
2022/02/27 06:16:39;;;;;;;2.27;1.17;;;1.10;93.60;;;;;;5040869;28;20049;-80
2022/02/27 06:19:07;;;;;;;2.27;1.00;;;1.10;93.60;;;;;;5040944;28;20496;-80
2022/02/27 06:21:34;;;;;;;2.70;0.90;;;1.10;93.70;;;;;;5077265;28;20435;-79
2022/02/27 06:24:01;;;;;;;3.63;1.00;;;1.10;93.70;;;;;;5077447;28;20041;-80
2022/02/27 06:26:31;;;;;;;2.43;0.80;;;1.10;93.70;;;;;;5059220;28;20036;-80
2022/02/27 06:29:02;;;;;;;3.10;1.10;;;1.10;93.70;;;;;;5044694;28;20036;-80
2022/02/27 06:31:30;;;;;;;2.63;0.80;;;1.10;93.70;;;;;;5043847;28;20043;-80
2022/02/27 06:33:57;;;;;;;3.27;1.00;;;1.10;93.70;;;;;;5058668;28;20040;-80
2022/02/27 06:36:24;;;;;;;2.60;1.10;;;1.10;93.70;;;;;;5074407;28;20091;-80
2022/02/27 06:38:52;;;;;;;4.27;1.40;;;1.00;93.70;;;;;;5056805;28;20125;-80
2022/02/27 06:41:19;;;;;;;3.53;1.00;;;1.10;93.70;;;;;;5056719;28;20429;-82
2022/02/27 06:43:46;;;;;;;2.20;0.90;;;1.10;93.70;;;;;;5056392;28;20506;-80
2022/02/27 06:46:13;;;;;;;3.17;1.20;;;1.10;93.70;;;;;;5040337;28;20037;-83
2022/02/27 06:48:40;;;;;;;3.83;1.13;;;1.10;93.60;;;;;;5023710;28;20032;-82
2022/02/27 06:51:09;;;;;;;3.90;1.10;;;1.10;93.60;;;;;;5039325;28;20043;-83
2022/02/27 06:53:38;;;;;;;3.83;1.40;;;1.10;93.60;;;;;;5024363;28;20080;-80
2022/02/27 06:56:11;;;;;;;;;;;1.10;93.60;;;;;;5057746;28;20110;-79
2022/02/27 06:58:38;;;;;;;2.17;0.90;;;1.10;93.60;;;;;;5039592;28;20322;-79
2022/02/27 07:01:05;;;;;;;3.33;1.33;;;1.10;93.60;;;;;;5039465;28;20511;-76
2022/02/27 07:03:32;;;;;;;3.07;1.30;;;1.10;93.60;;;;;;5023279;28;20139;-78
2022/02/27 07:06:02;;;;;;;3.33;1.43;;;1.10;93.60;;;;;;5056506;28;20591;-75
2022/02/27 07:08:29;;;;;;;3.50;0.93;;;1.20;93.60;;;;;;5023234;28;20547;-82
2022/02/27 07:11:00;;;;;;;1.83;0.70;;;1.20;93.60;;;;;;5023105;28;20443;-82
2022/02/27 07:13:27;;;;;;;1.97;0.77;;;1.20;93.60;;;;;;5023780;28;20771;-81
2022/02/27 07:15:54;;;;;;;2.70;0.90;;;1.30;93.60;;;;;;5039400;28;20110;-80
2022/02/27 07:18:21;;;;;;;2.17;0.90;;;1.30;93.60;;;;;;5006824;28;20143;-80
2022/02/27 07:20:51;;;;;;;3.50;1.20;;;1.30;93.60;;;;;;5056031;28;20048;-80
2022/02/27 07:23:20;;;;;;;4.97;1.13;;;1.30;93.60;;;;;;5039505;28;20068;-81
2022/02/27 07:25:47;;;;;;;2.30;1.10;;;1.40;93.60;;;;;;5007218;28;20049;-80
2022/02/27 07:28:14;;;;;;;2.77;0.93;;;1.40;93.50;;;;;;5021959;28;20075;-82
2022/02/27 07:30:43;;;;;;;2.97;1.23;;;1.40;93.50;;;;;;5022856;28;20118;-82
2022/02/27 07:33:10;;;;;;;2.60;1.13;;;1.50;93.50;;;;;;5055426;28;20075;-81
2022/02/27 07:35:37;;;;;;;4.10;1.27;;;1.60;93.50;;;;;;5065573;28;20052;-81
2022/02/27 07:38:04;;;;;;;3.73;1.10;;;1.60;93.40;;;;;;5042599;28;20040;-81
2022/02/27 07:40:31;;;;;;;2.17;1.00;;;1.70;93.40;;;;;;5042457;28;20444;-83
2022/02/27 07:42:58;;;;;;;2.63;1.15;;;1.70;93.40;;;;;;5042414;28;20150;-80
2022/02/27 07:45:25;;;;;;;3.03;1.47;;;1.70;93.30;;;;;;5075341;28;20059;-82
2022/02/27 07:47:52;;;;;;;2.63;0.90;;;1.80;93.30;;;;;;5058916;28;20123;-82
2022/02/27 07:50:19;;;;;;;3.57;1.40;;;1.80;93.30;;;;;;5057990;28;20062;-79
2022/02/27 07:52:46;;;;;;;3.83;1.10;;;1.90;93.30;;;;;;5042135;28;20135;-80
2022/02/27 07:55:13;;;;;;;3.87;1.33;;;1.90;93.20;;;;;;5074903;28;20093;-80
2022/02/27 07:57:40;;;;;;;3.47;1.27;;;2.00;93.20;;;;;;5074948;28;20117;-80
2022/02/27 08:00:08;;;;;;;2.53;1.33;;;2.00;93.10;;;;;;5093360;28;20051;-79
2022/02/27 08:02:41;;;;;;;3.97;1.40;;;2.10;93.10;;;;;;5075288;28;20116;-79
2022/02/27 08:05:08;;;;;;;2.87;1.10;;;2.10;93.00;;;;;;5093084;28;20040;-79
2022/02/27 08:07:35;;;;;;;4.85;1.40;;;2.20;93.00;;;;;;5058601;28;20048;-79
2022/02/27 08:10:03;;;;;;;3.67;1.50;;;2.20;92.90;;;;;;5058334;28;20067;-80
2022/02/27 08:12:31;;;;;;;2.53;1.20;;;2.30;92.90;;;;;;5074996;28;20044;-79
2022/02/27 08:15:01;;;;;;;2.43;0.83;;;2.30;92.90;;;;;;5073542;28;20043;-79
2022/02/27 08:17:28;;;;;;;3.22;1.27;;;2.40;92.90;;;;;;5064888;28;20047;-79
2022/02/27 08:20:13;;;;;;;3.92;1.20;;;2.40;92.90;;;;;;5059863;28;20039;-78
2022/02/27 08:22:40;;;;;;;2.23;0.90;;;2.50;92.80;;;;;;5075737;28;20039;-79
2022/02/27 08:25:10;;;;;;;2.50;1.20;;;2.50;92.80;;;;;;5075019;28;20042;-79
2022/02/27 08:27:38;;;;;;;2.37;1.03;;;2.50;92.70;;;;;;5074701;28;20142;-79
2022/02/27 08:30:06;;;;;;;2.97;1.20;;;2.60;92.70;;;;;;5058794;28;20097;-78
2022/02/27 08:32:36;;;;;;;3.58;1.15;;;2.60;92.70;;;;;;5092669;28;20127;-79
2022/02/27 08:35:04;;;;;;;5.00;1.53;;;2.70;92.70;;;;;;5092198;28;20500;-80
2022/02/27 08:37:31;;;;;;;3.03;1.15;;;2.70;92.60;;;;;;5052868;28;20048;-80
2022/02/27 08:39:58;;;;;;;4.30;1.17;;;2.80;92.60;;;;;;5070279;28;20048;-79
2022/02/27 08:42:30;;;;;;;3.58;1.42;;;2.80;92.60;;;;;;5035124;28;20040;-80
2022/02/27 08:44:57;;;;;;;3.97;1.43;;;2.90;92.50;;;;;;5035320;28;20079;-79
2022/02/27 08:47:24;;;;;;;8.85;2.28;;;2.90;92.50;;;;;;5035648;28;20033;-79
2022/02/27 08:49:51;;;;;;;4.15;1.83;;;3.00;92.40;;;;;;5069466;28;20436;-79
2022/02/27 08:52:21;;;;;;;5.63;2.05;;;3.00;92.30;;;;;;5051422;28;20041;-80
2022/02/27 08:54:49;;;;;;;2.70;1.20;;;3.10;92.30;;;;;;5035179;28;20051;-79
2022/02/27 08:57:18;;;;;;;3.85;1.65;;;3.10;92.30;;;;;;5051727;28;20036;-79
2022/02/27 08:59:45;;;;;;;4.22;1.63;;;3.20;92.20;;;;;;5034478;28;20064;-79
2022/02/27 09:02:13;;;;;;;4.82;1.80;;;3.20;92.20;;;;;;5069394;28;20050;-79
2022/02/27 09:04:40;;;;;;;4.75;1.70;;;3.30;92.20;;;;;;5035217;28;20047;-79
2022/02/27 09:07:07;;;;;;;4.82;1.88;;;3.30;92.10;;;;;;5034694;28;20126;-80
2022/02/27 09:09:34;;;;;;;6.22;1.70;;;3.40;92.10;;;;;;5056546;28;20062;-80
2022/02/27 09:12:08;;;;;;;4.33;1.93;;;3.40;92.00;;;;;;5071738;28;20117;-79
2022/02/27 09:14:37;;;;;;;3.03;1.47;;;3.50;92.00;;;;;;5075579;28;20185;-79
2022/02/27 09:17:05;;;;;;;3.67;1.80;;;3.50;92.00;;;;;;5058705;28;20209;-79
2022/02/27 09:19:32;;;;;;;4.97;2.17;;;3.60;91.90;;;;;;5094103;28;20048;-81
2022/02/27 09:21:59;;;;;;;6.23;2.00;;;3.60;91.80;;;;;;5110297;28;20044;-79
2022/02/27 09:24:29;;;;;;;4.30;1.67;;;3.70;91.80;;;;;;5097089;28;20044;-79
2022/02/27 09:26:56;;;;;;;4.30;1.67;;;3.80;91.70;;;;;;5098926;28;20131;-79
2022/02/27 09:29:23;;;;;;;5.57;1.65;;;3.80;91.70;;;;;;5065640;28;20046;-80
2022/02/27 09:32:12;;;;;;;4.07;1.60;;;3.90;91.70;;;;;;5083748;28;20048;-80
2022/02/27 09:34:39;;;;;;;4.40;1.90;;;4.00;91.60;;;;;;5080118;28;20063;-80
2022/02/27 09:37:06;;;;;;;5.70;1.85;;;4.00;91.60;;;;;;5045428;28;20476;-82
2022/02/27 09:39:41;;;;;;;4.05;1.60;;;4.00;91.50;;;;;;5045062;28;20481;-82
2022/02/27 09:42:08;;;;;;;4.80;2.05;;;4.10;91.50;;;;;;5044548;28;20043;-81
2022/02/27 09:44:41;;;;;;;6.53;1.63;;;4.20;91.40;;;;;;5044631;28;20048;-81
2022/02/27 09:47:13;;;;;;;3.80;1.63;;;4.30;91.40;;;;;;5061023;28;20078;-82
2022/02/27 09:49:46;;;;;;;5.10;2.15;;;4.30;91.30;;;;;;5060978;28;20036;-82
2022/02/27 09:52:16;;;;;;;4.18;2.28;;;4.30;91.30;;;;;;5078038;28;20036;-82
2022/02/27 09:54:45;;;;;;;3.47;1.35;;;4.40;91.30;;;;;;5060676;28;20050;-79
2022/02/27 09:57:21;;;;;;;5.07;1.75;;;4.50;91.20;;;;;;5060802;28;20553;-79
2022/02/27 09:59:50;;;;;;;5.53;1.88;;;4.50;91.20;;;;;;5078523;28;20424;-80
2022/02/27 10:02:19;;;;;;;5.50;2.13;;;4.60;91.00;;;;;;5060622;28;20496;-79
2022/02/27 10:04:48;;;;;;;5.93;2.03;;;4.70;90.90;;;;;;5095433;28;20079;-79
2022/02/27 10:07:17;;;;;;;4.97;1.65;;;4.70;90.80;;;;;;5077534;28;20051;-79
2022/02/27 10:09:46;;;;;;;3.00;1.27;;;4.80;90.70;;;;;;5094880;28;20113;-79
2022/02/27 10:12:24;;;;;;;3.85;1.45;;;4.90;90.70;;;;;;5094951;28;20043;-79
2022/02/27 10:15:01;;;;;;;3.60;1.42;;;5.00;90.60;;;;;;5094953;28;20095;-79
2022/02/27 10:17:38;;;;;;;4.40;1.63;;;5.10;90.40;;;;;;5076909;28;20051;-79
2022/02/27 10:20:14;;;;;;;3.72;1.25;;;5.10;90.30;;;;;;5060285;28;20044;-79
2022/02/27 10:22:52;;;;;;;5.38;2.08;;;5.10;90.20;;;;;;5077191;28;20500;-81
2022/02/27 10:25:23;;;;;;;5.15;1.77;;;5.20;90.00;;;;;;5075439;28;20059;-81
2022/02/27 10:27:58;;;;;;;4.63;1.90;;;5.20;90.00;;;;;;5060095;28;20094;-84
2022/02/27 10:30:28;;;;;;;3.70;2.00;;;5.20;89.80;;;;;;5076757;28;20048;-82
2022/02/27 10:33:08;;;;;;;4.57;1.75;;;5.30;89.60;;;;;;5076589;28;20062;-83
2022/02/27 10:35:46;;;;;;;4.32;1.63;;;5.30;89.40;;;;;;5094755;28;20048;-83
2022/02/27 10:38:44;;;;;;;3.50;1.73;;;5.30;89.30;;;;;;5076945;28;20052;-83
2022/02/27 10:41:14;;;;;;;4.35;2.08;;;5.30;89.10;;;;;;5076534;28;20048;-82
2022/02/27 10:43:43;;;;;;;4.03;2.00;;;5.40;88.90;;;;;;5043851;28;20079;-82
2022/02/27 10:46:12;;;;;;;4.00;1.85;;;5.40;88.60;;;;;;5059664;28;20047;-82
2022/02/27 10:48:39;;;;;;;3.08;1.50;;;5.40;89.10;;;;;;5060249;28;20036;-83
2022/02/27 10:51:10;;;;;;;5.68;2.17;;;5.50;88.60;;;;;;5076577;28;20090;-83
2022/02/27 10:53:42;;;;;;;3.97;1.33;;;5.50;88.40;;;;;;5075966;28;20057;-83
2022/02/27 10:56:11;;;;;;;3.83;1.80;;;5.50;88.20;;;;;;5059480;28;20055;-82
2022/02/27 10:58:43;;;;;;;7.70;2.20;;;5.50;88.10;;;;;;5075916;28;20040;-82
2022/02/27 11:01:26;;;;;;;5.22;1.65;;;5.60;88.00;;;;;;5076321;28;20119;-83
2022/02/27 11:03:55;;;;;;;6.25;2.38;;;5.60;87.80;;;;;;5043547;28;20044;-84
2022/02/27 11:06:26;;;;;;;3.90;1.55;;;5.60;87.70;;;;;;5093982;28;20036;-83
2022/02/27 11:08:53;;;;;;;7.18;2.15;;;5.60;87.50;;;;;;5042740;28;20504;-79
2022/02/27 11:11:22;;;;;;;5.53;1.95;;;5.70;87.40;;;;;;5059113;28;20040;-79
2022/02/27 11:13:52;;;;;;;3.50;1.48;;;5.80;87.30;;;;;;5076709;28;20127;-83
2022/02/27 11:16:21;;;;;;;2.60;1.23;;;5.80;87.30;;;;;;5026638;28;20078;-84
2022/02/27 11:18:51;;;;;;;4.30;1.60;;;5.80;87.20;;;;;;5059425;28;20071;-83
2022/02/27 11:21:20;;;;;;;2.80;1.20;;;5.90;86.90;;;;;;5059350;28;20054;-83
2022/02/27 11:23:50;;;;;;;5.03;1.60;;;5.90;87.50;;;;;;5059190;28;20130;-82
2022/02/27 11:26:18;;;;;;;3.10;1.40;;;6.00;86.90;;;;;;5075923;28;20044;-83
2022/02/27 11:28:45;;;;;;;5.00;1.85;;;6.00;86.80;;;;;;5042747;28;20127;-82
2022/02/27 11:31:16;;;;;;;5.28;2.03;;;6.00;86.60;;;;;;5043123;28;20044;-81
2022/02/27 11:33:43;;;;;;;6.72;2.10;;;6.00;86.40;;;;;;5058814;28;20044;-81
2022/02/27 11:36:23;;;;;;;4.13;2.30;;;6.00;86.00;;;;;;5090794;28;20499;-81
2022/02/27 11:39:00;;;;;;;6.22;2.53;;;6.00;85.60;;;;;;5113950;28;20047;-82
2022/02/27 11:41:45;;;;;;;4.25;2.08;;;6.10;85.40;;;;;;5113859;28;20054;-82
2022/02/27 11:44:13;;;;;;;3.78;1.70;;;6.10;85.30;;;;;;5078611;28;20047;-81
2022/02/27 11:46:43;;;;;;;5.70;2.25;;;6.10;85.20;;;;;;5095649;28;20429;-81
2022/02/27 11:49:13;;;;;;;5.80;2.60;;;6.10;85.20;;;;;;5095431;28;20047;-82
2022/02/27 11:51:46;;;;;;;3.92;1.83;;;6.10;85.10;;;;;;5095549;28;20046;-82
2022/02/27 11:54:21;;;;;;;3.85;1.95;;;6.20;85.10;;;;;;5095421;28;20495;-80
2022/02/27 11:57:00;;;;;;;3.78;1.50;;;6.20;84.90;;;;;;5065632;28;20044;-80
2022/02/27 11:59:47;;;;;;;4.40;2.22;;;6.30;84.90;;;;;;5067502;28;20044;-81
2022/02/27 12:02:30;;;;;;;6.05;2.22;;;6.30;84.80;;;;;;5075018;28;20048;-80
2022/02/27 12:04:59;;;;;;;4.13;1.55;;;6.40;85.10;;;;;;5058447;28;20048;-80
2022/02/27 12:07:28;;;;;;;4.22;1.77;;;6.40;84.70;;;;;;5058067;28;20043;-81
2022/02/27 12:09:58;;;;;;;4.78;1.65;;;6.50;84.70;;;;;;5058447;28;20112;-81
2022/02/27 12:12:54;;;;;;;4.00;1.40;;;6.50;84.60;;;;;;5057930;28;20054;-80
2022/02/27 12:15:27;;;;;;;3.97;1.83;;;6.60;84.30;;;;;;5058243;28;20492;-84
2022/02/27 12:17:57;;;;;;;4.97;1.60;;;6.60;84.30;;;;;;5075344;28;20048;-80
2022/02/27 12:20:40;;;;;;;3.83;1.17;;;6.60;84.30;;;;;;5074572;28;20047;-78
2022/02/27 12:23:09;;;;;;;4.93;1.65;;;6.60;84.00;;;;;;5092781;28;20044;-78
2022/02/27 12:25:39;;;;;;;2.75;1.35;;;6.60;84.20;;;;;;5059485;28;20767;-78
2022/02/27 12:28:07;;;;;;;2.97;1.38;;;6.60;84.10;;;;;;5037847;28;20044;-79
2022/02/27 12:30:36;;;;;;;4.93;1.52;;;6.60;84.00;;;;;;5054441;28;20040;-77
2022/02/27 12:33:07;;;;;;;4.95;1.67;;;6.70;84.00;;;;;;5072388;28;20400;-80
2022/02/27 12:35:38;;;;;;;4.15;1.65;;;6.70;83.80;;;;;;5057152;28;20055;-80
2022/02/27 12:38:14;;;;;;;3.15;1.67;;;6.70;83.50;;;;;;5043036;28;20106;-80
2022/02/27 12:40:41;;;;;;;5.07;1.27;;;6.80;83.40;;;;;;5058395;28;20181;-81
2022/02/27 12:43:11;;;;;;;4.18;1.23;;;6.80;83.00;;;;;;5027978;28;20048;-78
2022/02/27 12:45:38;;;;;;;3.60;1.70;;;6.90;83.00;;;;;;5058460;28;20048;-80
2022/02/27 12:48:18;;;;;;;5.30;1.42;;;6.90;83.40;;;;;;5040817;28;20127;-83
2022/02/27 12:50:47;;;;;;;3.17;1.35;;;7.00;82.60;;;;;;5054839;28;20045;-81
2022/02/27 12:53:18;;;;;;;8.02;4.28;;;7.00;82.50;;;;;;5072230;28;20040;-82
2022/02/27 12:55:45;;;;;;;9.18;5.10;;;7.00;82.50;;;;;;5053461;28;20507;-79
2022/02/27 12:58:15;;;;;;;5.60;3.20;;;7.10;82.30;;;;;;5054650;28;20106;-85
2022/02/27 13:00:44;;;;;;;6.07;2.60;;;7.10;82.00;;;;;;5055040;28;20052;-83
2022/02/27 13:03:18;;;;;;;8.07;2.47;;;7.20;81.60;;;;;;5038830;28;20044;-88
2022/02/27 13:05:59;;;;;;;4.30;2.10;;;7.20;81.30;;;;;;5055040;28;20045;-89
2022/02/27 13:08:26;;;;;;;5.60;1.67;;;7.30;81.20;;;;;;5038999;28;20041;-89